Apple River, Illinois
Current Conditions -  °F | °C
As of 1:15 PM on Tuesday 21 Oct 2014 (Local Time) from KPVB Reporting Station
Clear Clear  
Wind Chill: 53°   Ceiling: Unl
Heat Index: 53°   Visibility: 10mi
Dew Point: 38°   Wind: 6mph
Humidity: 56%   Direction: 40°NE
Pressure: 30.21"   Gusts: NA
Location:  42.51°N, 90.1°W
Report Text: KPVB 211815Z AUTO 04005KT 10SM CLR 12/03 A3021 RMK AO1 T01190034
Loading
Personal Weather Stations






























Interactive Weather Map
Tropical Storm Tracking
New forecast layout! Learn more

10-Day Weather Forecast

Advertisements
Track Severe Weather on mobile